• Join FlightAware (Why Join?)
  • Login
  • US Flag 
01:36PM EDT


 

Airport Tracker/Info


-or-


 

Live Flight TrackerFlight Track Log ✈ N61697 ✈ 22-Mar-2014 ✈ KXFL - KTMB

Flight Track Log - Related Links

Times and Time Zones

All times are in EDT time to prevent confusion due to time zone crossing. See the N61697 flight status page for this flight to view local times or setup timezone preferences in your user account.

Time Position Orientation Groundspeed Altitude Reporting Facility
EDT Latitude Longitude Course Direction KTS MPH feet Rate Location/Type
10:19PM 29.5889 -81.1778 158° South 101 116 2,500  Level Jacksonville Center
10:20PM 29.5639 -81.1664 158° South 102 117 2,400 -60 Descending Jacksonville Center
10:21PM 29.5386 -81.1547 158° South 99 114 2,400  Level Jacksonville Center
10:22PM 29.5114 -81.1481 168° South 97 112 2,500  Climbing Jacksonville Center
10:23PM 29.4819 -81.1367 161° South 98 113 2,500  Level Jacksonville Center
10:24PM 29.4567 -81.1253 159° South 98 113 2,500  Level Jacksonville Center
10:25PM 29.4317 -81.1114 154° Southeast 98 113 2,500  Level Jacksonville Center
10:26PM 29.4064 -81.1000 159° South 100 115 2,500  Level Jacksonville Center
10:27PM 29.3792 -81.0908 164° South 98 113 2,500 -120 Level Jacksonville Center
10:28PM 29.3497 -81.0794 161° South 106 122 2,300 -60 Descending Jacksonville Center
10:30PM 29.3000 -81.0667 167° South 92 106 2,400 60 Climbing Orlando TRACON
10:31PM 29.2833 -81.0500 139° Southeast 98 113 2,500  Climbing Orlando TRACON
10:32PM 29.2500 -81.0333 156° South 99 114 2,400 60 Descending Orlando TRACON
10:33PM 29.2333 -81.0167 139° Southeast 97 112 2,700 180 Climbing Orlando TRACON
10:34PM 29.2000 -81.0000 156° South 99 114 2,800  Climbing Orlando TRACON
10:35PM 29.1833 -80.9833 139° Southeast 106 122 2,800  Level Orlando TRACON
10:36PM 29.1500 -80.9833 180° South 94 108 2,800  Level Orlando TRACON
10:37PM 29.1167 -80.9833 180° South 84 97 2,800  Level Orlando TRACON
10:38PM 29.1000 -80.9833 180° South 87 100 2,800 -60 Level Orlando TRACON
10:39PM 29.0833 -80.9833 180° South 92 106 2,700  Descending Orlando TRACON
10:40PM 29.0500 -80.9833 180° South 94 108 2,800  Climbing Orlando TRACON
10:41PM 29.0333 -80.9833 180° South 99 114 2,700  Descending Orlando TRACON
10:42PM 29.0000 -80.9833 180° South 95 109 2,800  Climbing Orlando TRACON
10:43PM 28.9667 -80.9833 180° South 101 116 2,700 -60 Descending Orlando TRACON
10:44PM 28.9500 -80.9667 139° Southeast 101 116 2,700  Level Orlando TRACON
10:45PM 28.9167 -80.9500 156° South 99 114 2,700  Level Orlando TRACON
10:46PM 28.9000 -80.9500 180° South 100 115 2,800  Climbing Orlando TRACON
10:47PM 28.8667 -80.9333 156° South 105 121 2,800  Level Orlando TRACON
10:48PM 28.8333 -80.9333 180° South 96 110 2,800  Level Orlando TRACON
10:49PM 28.8167 -80.9167 139° Southeast 107 123 2,800 -60 Level Orlando TRACON
10:50PM 28.7833 -80.9000 156° South 110 127 2,700 -60 Descending Orlando TRACON
10:51PM 28.7500 -80.8833 156° South 105 121 2,700 -60 Level Orlando TRACON
10:52PM 28.7333 -80.8833 180° South 108 124 2,600 -60 Descending Orlando TRACON
10:53PM 28.7000 -80.8667 156° South 106 122 2,600  Level Orlando TRACON
10:54PM 28.6667 -80.8667 180° South 107 123 2,600  Level Orlando TRACON
10:55PM 28.6500 -80.8500 139° Southeast 111 128 2,600  Level Orlando TRACON
10:56PM 28.6167 -80.8333 156° South 107 123 2,700  Climbing Orlando TRACON
10:57PM 28.5833 -80.8167 156° South 111 128 2,700  Level Orlando TRACON
10:58PM 28.5667 -80.8000 139° Southeast 109 125 2,700  Level Orlando TRACON
10:59PM 28.5333 -80.8000 180° South 111 128 2,700  Level Orlando TRACON
11:00PM 28.5000 -80.7833 156° South 106 122 2,700  Level Orlando TRACON
11:01PM 28.4833 -80.7667 139° Southeast 107 123 2,800  Climbing Orlando TRACON
11:02PM 28.4500 -80.7667 180° South 106 122 2,800  Level Orlando TRACON
11:03PM 28.4167 -80.7500 156° South 106 122 2,800  Level Orlando TRACON
11:04PM 28.3833 -80.7333 156° South 106 122 2,800 -60 Level Orlando TRACON
11:05PM 28.3667 -80.7333 180° South 101 116 2,700  Descending Orlando TRACON
11:06PM 28.3333 -80.7333 180° South 111 128 2,800  Climbing Orlando TRACON
11:07PM 28.3167 -80.7167 139° Southeast 103 119 2,800 -60 Level Orlando TRACON
11:08PM 28.2833 -80.7000 156° South 105 121 2,700  Descending Orlando TRACON
11:09PM 28.2500 -80.6833 156° South 105 121 2,800  Climbing Orlando TRACON
11:11PM 28.1897 -80.6656 165° South 108 124 2,700 -120 Descending Miami Center
11:12PM 28.1625 -80.6647 178° South 103 119 2,600  Descending Miami Center
11:13PM 28.1356 -80.6592 170° South 103 119 2,700  Climbing Miami Center
11:14PM 28.1086 -80.6583 178° South 103 119 2,600 -60 Descending Miami Center
11:15PM 28.0836 -80.6481 160° South 103 119 2,600  Level Miami Center
11:16PM 28.0569 -80.6331 154° Southeast 103 119 2,700  Climbing Miami Center
11:17PM 28.0322 -80.6203 155° Southeast 103 119 2,700 -60 Level Miami Center
11:18PM 28.0053 -80.6172 174° South 103 119 2,600 -60 Descending Miami Center
11:19PM 27.9822 -80.6164 178° South 103 119 2,600  Level Miami Center
11:20PM 27.9553 -80.6131 174° South 103 119 2,700  Climbing Miami Center
11:21PM 27.9239 -80.6119 178° South 103 119 2,700 -60 Level Miami Center
11:22PM 27.8969 -80.6089 174° South 103 119 2,600 -60 Descending Miami Center
11:23PM 27.8678 -80.6056 174° South 103 119 2,600 60 Level Miami Center
11:24PM 27.8428 -80.6047 178° South 103 119 2,800 120 Climbing Miami Center
11:25PM 27.8114 -80.6014 175° South 103 119 2,900  Climbing Miami Center
11:26PM 27.7822 -80.6003 178° South 103 119 2,900  Level Miami Center
11:27PM 27.7553 -80.5947 170° South 103 119 2,900  Level Miami Center
11:28PM 27.7281 -80.5961 183° South 103 119 2,900  Level Miami Center
11:29PM 27.6969 -80.5906 171° South 103 119 2,900  Level Miami Center
11:30PM 27.6656 -80.5894 178° South 103 119 3,000  Climbing Miami Center
11:31PM 27.6364 -80.5886 179° South 103 119 2,900  Descending Miami Center
11:32PM 27.6053 -80.5853 175° South 103 119 3,000  Climbing Miami Center
11:33PM 27.5783 -80.5819 174° South 103 119 3,000 -60 Level Miami Center
11:34PM 27.5492 -80.5786 174° South 103 119 2,900  Descending Miami Center
11:35PM 27.5158 -80.5753 175° South 103 119 3,000  Climbing Miami Center
11:36PM 27.4867 -80.5744 179° South 103 119 3,000 -60 Level Miami Center
11:37PM 27.4553 -80.5733 178° South 103 119 2,900 -60 Descending Miami Center
11:38PM 27.4281 -80.5725 178° South 103 119 2,900 -60 Level Miami Center
11:39PM 27.3989 -80.5692 174° South 103 119 2,800 -120 Descending Miami Center
11:40PM 27.3636 -80.5611 169° South 103 119 2,700  Descending Miami Center
11:41PM 27.3367 -80.5578 174° South 103 119 2,900 120 Climbing Miami Center
11:42PM 27.3075 -80.5569 179° South 103 119 3,000  Climbing Miami Center
11:43PM 27.2822 -80.5583 183° South 103 119 2,900 -60 Descending Miami Center
11:44PM 27.2511 -80.5528 171° South 103 119 2,900  Level Miami Center
11:45PM 27.2181 -80.5422 164° South 108 124 2,900  Level Miami Center
11:46PM 27.1889 -80.5344 167° South 108 124 2,900  Level Miami Center
11:47PM 27.1600 -80.5289 170° South 108 124 2,900  Level Miami Center
11:48PM 27.1328 -80.5281 178° South 108 124 2,900  Level Miami Center
11:49PM 27.1036 -80.5269 178° South 101 116 3,000  Climbing Miami Center
11:50PM 27.0722 -80.5283 182° South 101 116 3,000  Level Miami Center
11:51PM 27.0431 -80.5297 182° South 101 116 3,000 -60 Level Miami Center
12:11AM 26.4883 -80.4961 174° South 100 115 2,900 -60 Descending Miami Center
12:11AM 26.4675 -80.4933 173° South 99 114 2,900  Level Miami Center
12:12AM 26.4403 -80.4947 183° South 101 116 2,900  Level Miami Center
12:13AM 26.4194 -80.4942 179° South 101 116 2,900  Level Miami Center
12:14AM 26.3903 -80.4908 174° South 100 115 2,900  Level Miami Center
12:15AM 26.3569 -80.4875 175° South 98 113 3,000 -60 Climbing Miami Center
12:16AM 26.3297 -80.4867 178° South 102 117 2,800 -120 Descending Miami Center
12:17AM 26.3006 -80.4906 187° South 105 121 2,800 60 Level Miami Center
12:18AM 26.2756 -80.4828 164° South 99 114 3,000  Climbing Miami Center
12:19AM 26.2464 -80.4794 174° South 106 122 2,900 -60 Descending Miami Center
12:20AM 26.2194 -80.4742 170° South 105 121 2,900 -60 Level Miami Center
12:21AM 26.1900 -80.4778 186° South 105 121 2,800  Descending Miami Center
12:22AM 26.1608 -80.4769 179° South 101 116 3,000 60 Climbing Miami Center
12:23AM 26.1339 -80.4739 174° South 97 112 3,000 -60 Level Miami Center
12:24AM 26.1089 -80.4708 174° South 103 119 2,900 -60 Descending Miami Center
12:25AM 26.0756 -80.4675 175° South 106 122 2,900  Level Miami Center
12:26AM 26.0464 -80.4642 174° South 103 119 2,900  Level Miami Center
12:27AM 26.0172 -80.4611 175° South 101 116 2,900  Level Miami Center
12:28AM 25.9900 -80.4603 178° South 97 112 2,900  Level Miami Center
12:29AM 25.9631 -80.4569 174° South 99 114 3,000  Climbing Miami Center
12:30AM 25.9358 -80.4586 183° South 102 117 2,900 -60 Descending Miami Center
12:31AM 25.9067 -80.4578 179° South 101 116 2,900  Level Miami Center
12:32AM 25.8753 -80.4544 175° South 105 121 2,900 -60 Level Miami Center
12:33AM 25.8483 -80.4467 165° South 104 120 2,800 -60 Descending Miami Center
12:34AM 25.8214 -80.4436 174° South 102 117 2,800  Level Miami Center
12:35AM 25.7986 -80.4358 163° South 104 120 2,800  Level Miami Center